Terminal Aerodrome Forecast
Issued by NWS Pueblo, CO

Home | Current Version | Previous Version | Text Only | Print | Product List | Glossary On
Versions: 1 2 3 4 5 6 7 8 9 10 11 12 13 14 15 16 17 18 19 20 21 22 23 24
000
FTUS45 KPUB 221130
TAFCOS
TAF
KCOS 221130Z 2212/2312 VRB06KT P6SM SCT090 BKN150
     FM221800 15008KT P6SM SCT100 SCT150
     FM222100 16011KT P6SM VCSH SCT090 BKN140
     FM230200 VRB06KT P6SM SCT090 BKN140
     FM230500 VRB05KT P6SM SCT140=

USA.gov is the U.S. government's official web portal to all federal, state and local government web resources and services.